sensor_id;sensor_type;location;lat;lon;timestamp;pressure;altitude;pressure_sealevel;temperature;humidity
38780;BME280;29273;49.962;9.768;2024-03-23T00:55:33;98981.16;;;11.40;51.22
38780;BME280;29273;49.962;9.768;2024-03-23T00:57:59;98970.22;;;11.37;51.43
38780;BME280;29273;49.962;9.768;2024-03-23T01:00:24;98962.72;;;11.34;51.45
38780;BME280;29273;49.962;9.768;2024-03-23T01:02:50;98959.50;;;11.32;51.34
38780;BME280;29273;49.962;9.768;2024-03-23T01:05:15;98952.78;;;11.29;51.67
38780;BME280;29273;49.962;9.768;2024-03-23T01:07:41;98945.88;;;11.28;51.73
38780;BME280;29273;49.962;9.768;2024-03-23T01:10:06;98944.47;;;11.25;51.84
38780;BME280;29273;49.962;9.768;2024-03-23T01:12:32;98935.97;;;11.23;52.11
38780;BME280;29273;49.962;9.768;2024-03-23T01:14:57;98929.84;;;11.23;52.33
38780;BME280;29273;49.962;9.768;2024-03-23T01:17:23;98922.94;;;11.22;52.72
38780;BME280;29273;49.962;9.768;2024-03-23T01:19:48;98921.34;;;11.21;52.49
38780;BME280;29273;49.962;9.768;2024-03-23T01:22:14;98909.09;;;11.20;52.57
38780;BME280;29273;49.962;9.768;2024-03-23T01:24:40;98900.34;;;11.19;52.53
38780;BME280;29273;49.962;9.768;2024-03-23T01:27:05;98897.72;;;11.19;52.73
38780;BME280;29273;49.962;9.768;2024-03-23T01:29:31;98894.44;;;11.17;52.42
38780;BME280;29273;49.962;9.768;2024-03-23T01:31:56;98883.06;;;11.17;52.06
38780;BME280;29273;49.962;9.768;2024-03-23T01:34:22;98874.53;;;11.15;52.06
38780;BME280;29273;49.962;9.768;2024-03-23T01:36:47;98875.78;;;11.12;51.88
38780;BME280;29273;49.962;9.768;2024-03-23T01:39:13;98870.72;;;11.10;52.21
38780;BME280;29273;49.962;9.768;2024-03-23T01:41:40;98875.44;;;11.08;52.29
38780;BME280;29273;49.962;9.768;2024-03-23T01:44:07;98866.69;;;11.08;52.42
38780;BME280;29273;49.962;9.768;2024-03-23T01:46:34;98856.31;;;11.06;52.19
38780;BME280;29273;49.962;9.768;2024-03-23T01:49:00;98853.09;;;11.04;52.29
38780;BME280;29273;49.962;9.768;2024-03-23T01:51:26;98856.75;;;11.03;52.36
38780;BME280;29273;49.962;9.768;2024-03-23T01:53:52;98852.50;;;11.02;52.34
38780;BME280;29273;49.962;9.768;2024-03-23T01:56:18;98848.47;;;11.00;51.89
38780;BME280;29273;49.962;9.768;2024-03-23T01:58:44;98843.63;;;10.97;52.06
38780;BME280;29273;49.962;9.768;2024-03-23T02:01:10;98846.50;;;10.95;52.11
38780;BME280;29273;49.962;9.768;2024-03-23T02:03:36;98839.00;;;10.92;52.25
38780;BME280;29273;49.962;9.768;2024-03-23T02:06:02;98833.94;;;10.90;52.21
38780;BME280;29273;49.962;9.768;2024-03-23T02:08:28;98831.28;;;10.90;52.33
38780;BME280;29273;49.962;9.768;2024-03-23T02:10:55;98822.53;;;10.90;52.50
38780;BME280;29273;49.962;9.768;2024-03-23T02:13:21;98823.56;;;10.89;52.63
38780;BME280;29273;49.962;9.768;2024-03-23T02:15:46;98814.81;;;10.88;52.72
38780;BME280;29273;49.962;9.768;2024-03-23T02:18:12;98813.19;;;10.87;52.65
38780;BME280;29273;49.962;9.768;2024-03-23T02:20:37;98812.16;;;10.88;52.88
38780;BME280;29273;49.962;9.768;2024-03-23T02:23:04;98800.31;;;10.91;52.71
38780;BME280;29273;49.962;9.768;2024-03-23T02:25:32;98806.19;;;10.93;52.65
38780;BME280;29273;49.962;9.768;2024-03-23T02:27:58;98792.94;;;10.93;53.08
38780;BME280;29273;49.962;9.768;2024-03-23T02:30:25;98790.28;;;10.93;52.88
38780;BME280;29273;49.962;9.768;2024-03-23T02:32:51;98781.06;;;10.96;53.20
38780;BME280;29273;49.962;9.768;2024-03-23T02:35:16;98785.34;;;10.97;53.16
38780;BME280;29273;49.962;9.768;2024-03-23T02:37:41;98784.53;;;10.96;53.48
38780;BME280;29273;49.962;9.768;2024-03-23T02:40:07;98773.72;;;10.98;53.69
38780;BME280;29273;49.962;9.768;2024-03-23T02:42:33;98779.81;;;10.98;53.85
38780;BME280;29273;49.962;9.768;2024-03-23T02:44:58;98780.38;;;11.00;53.98
38780;BME280;29273;49.962;9.768;2024-03-23T02:47:24;98771.19;;;11.03;54.14
38780;BME280;29273;49.962;9.768;2024-03-23T02:49:49;98767.47;;;11.04;54.26
38780;BME280;29273;49.962;9.768;2024-03-23T02:52:15;98767.25;;;11.05;54.45
38780;BME280;29273;49.962;9.768;2024-03-23T02:54:40;98763.34;;;11.08;54.42
38780;BME280;29273;49.962;9.768;2024-03-23T02:57:10;98753.09;;;11.11;54.38
38780;BME280;29273;49.962;9.768;2024-03-23T02:59:35;98754.50;;;11.14;54.56
38780;BME280;29273;49.962;9.768;2024-03-23T03:02:01;98739.97;;;11.17;54.57
38780;BME280;29273;49.962;9.768;2024-03-23T03:04:26;98736.06;;;11.19;54.53
38780;BME280;29273;49.962;9.768;2024-03-23T03:06:52;98740.88;;;11.22;54.54
38780;BME280;29273;49.962;9.768;2024-03-23T03:09:17;98732.44;;;11.25;54.50
38780;BME280;29273;49.962;9.768;2024-03-23T03:11:42;98730.63;;;11.26;54.50
38780;BME280;29273;49.962;9.768;2024-03-23T03:14:08;98735.44;;;11.29;54.10
38780;BME280;29273;49.962;9.768;2024-03-23T03:16:33;98718.75;;;11.28;54.13
38780;BME280;29273;49.962;9.768;2024-03-23T03:18:59;98725.66;;;11.29;54.29
38780;BME280;29273;49.962;9.768;2024-03-23T03:21:25;98721.38;;;11.28;54.06
38780;BME280;29273;49.962;9.768;2024-03-23T03:23:50;98713.66;;;11.27;54.24
38780;BME280;29273;49.962;9.768;2024-03-23T03:26:17;98716.88;;;11.29;54.36
38780;BME280;29273;49.962;9.768;2024-03-23T03:28:43;98709.53;;;11.31;54.29
38780;BME280;29273;49.962;9.768;2024-03-23T03:31:09;98706.06;;;11.30;54.62
38780;BME280;29273;49.962;9.768;2024-03-23T03:33:35;98694.19;;;11.33;54.68
38780;BME280;29273;49.962;9.768;2024-03-23T03:36:00;98690.50;;;11.34;55.05
38780;BME280;29273;49.962;9.768;2024-03-23T03:38:26;98696.38;;;11.36;54.95
38780;BME280;29273;49.962;9.768;2024-03-23T03:40:51;98705.69;;;11.39;54.92
38780;BME280;29273;49.962;9.768;2024-03-23T03:43:18;98709.75;;;11.41;55.09
38780;BME280;29273;49.962;9.768;2024-03-23T03:45:51;98701.66;;;11.48;53.88
38780;BME280;29273;49.962;9.768;2024-03-23T03:48:17;98696.81;;;11.45;55.05
38780;BME280;29273;49.962;9.768;2024-03-23T03:50:42;98691.50;;;11.45;54.87
38780;BME280;29273;49.962;9.768;2024-03-23T03:53:08;98683.56;;;11.45;54.96
38780;BME280;29273;49.962;9.768;2024-03-23T03:55:33;98687.25;;;11.44;55.24
38780;BME280;29273;49.962;9.768;2024-03-23T03:57:59;98673.97;;;11.44;55.17
38780;BME280;29273;49.962;9.768;2024-03-23T04:00:24;98664.44;;;11.43;55.24
38780;BME280;29273;49.962;9.768;2024-03-23T04:02:50;98667.88;;;11.43;55.32
38780;BME280;29273;49.962;9.768;2024-03-23T04:05:16;98673.97;;;11.44;55.08
38780;BME280;29273;49.962;9.768;2024-03-23T04:07:42;98668.69;;;11.44;54.44
38780;BME280;29273;49.962;9.768;2024-03-23T04:10:07;98682.19;;;11.42;54.95
38780;BME280;29273;49.962;9.768;2024-03-23T04:12:34;98668.34;;;11.40;54.75
38780;BME280;29273;49.962;9.768;2024-03-23T04:15:00;98649.22;;;11.38;54.78
38780;BME280;29273;49.962;9.768;2024-03-23T04:17:26;98637.84;;;11.38;54.81
38780;BME280;29273;49.962;9.768;2024-03-23T04:19:57;98637.13;;;11.30;55.29
38780;BME280;29273;49.962;9.768;2024-03-23T04:22:22;98627.38;;;11.31;55.26
38780;BME280;29273;49.962;9.768;2024-03-23T04:24:49;98633.94;;;11.28;55.53
38780;BME280;29273;49.962;9.768;2024-03-23T04:27:15;98634.97;;;11.27;55.37
38780;BME280;29273;49.962;9.768;2024-03-23T04:29:40;98641.31;;;11.26;55.61
38780;BME280;29273;49.962;9.768;2024-03-23T04:32:06;98624.63;;;11.26;55.64
38780;BME280;29273;49.962;9.768;2024-03-23T04:34:32;98620.34;;;11.25;55.61
38780;BME280;29273;49.962;9.768;2024-03-23T04:36:58;98631.50;;;11.27;55.52
38780;BME280;29273;49.962;9.768;2024-03-23T04:39:24;98625.41;;;11.26;55.71
38780;BME280;29273;49.962;9.768;2024-03-23T04:41:49;98623.00;;;11.25;55.65
38780;BME280;29273;49.962;9.768;2024-03-23T04:44:15;98625.41;;;11.26;55.49
38780;BME280;29273;49.962;9.768;2024-03-23T04:46:40;98624.63;;;11.26;55.37
38780;BME280;29273;49.962;9.768;2024-03-23T04:49:06;98617.94;;;11.23;55.34
38780;BME280;29273;49.962;9.768;2024-03-23T04:51:36;98625.41;;;11.26;54.47
38780;BME280;29273;49.962;9.768;2024-03-23T04:54:03;98627.97;;;11.21;55.34
38780;BME280;29273;49.962;9.768;2024-03-23T04:56:30;98618.63;;;11.19;55.53
38780;BME280;29273;49.962;9.768;2024-03-23T04:58:56;98601.38;;;11.16;55.27
38780;BME280;29273;49.962;9.768;2024-03-23T05:01:27;98607.69;;;11.15;55.57
38780;BME280;29273;49.962;9.768;2024-03-23T05:03:52;98594.69;;;11.14;55.72
38780;BME280;29273;49.962;9.768;2024-03-23T05:06:18;98604.47;;;11.13;55.84
38780;BME280;29273;49.962;9.768;2024-03-23T05:08:44;98594.13;;;11.11;55.74
38780;BME280;29273;49.962;9.768;2024-03-23T05:11:11;98602.28;;;11.10;55.91
38780;BME280;29273;49.962;9.768;2024-03-23T05:13:36;98601.50;;;11.09;55.95
38780;BME280;29273;49.962;9.768;2024-03-23T05:16:02;98591.69;;;11.10;56.18
38780;BME280;29273;49.962;9.768;2024-03-23T05:18:27;98590.06;;;11.09;56.30
38780;BME280;29273;49.962;9.768;2024-03-23T05:20:57;98600.53;;;11.16;55.65
38780;BME280;29273;49.962;9.768;2024-03-23T05:23:25;98590.91;;;11.09;56.26
38780;BME280;29273;49.962;9.768;2024-03-23T05:25:52;98594.13;;;11.11;56.38
38780;BME280;29273;49.962;9.768;2024-03-23T05:28:18;98590.91;;;11.09;57.54
38780;BME280;29273;49.962;9.768;2024-03-23T05:30:43;98579.84;;;11.13;57.40
38780;BME280;29273;49.962;9.768;2024-03-23T05:33:09;98589.16;;;11.15;58.11
38780;BME280;29273;49.962;9.768;2024-03-23T05:35:35;98570.69;;;11.20;58.02
38780;BME280;29273;49.962;9.768;2024-03-23T05:38:00;98560.50;;;11.29;57.52
38780;BME280;29273;49.962;9.768;2024-03-23T05:40:26;98574.31;;;11.43;57.38
38780;BME280;29273;49.962;9.768;2024-03-23T05:42:52;98571.59;;;11.55;57.08
38780;BME280;29273;49.962;9.768;2024-03-23T05:45:21;98578.22;;;11.69;56.76
38780;BME280;29273;49.962;9.768;2024-03-23T05:47:48;98583.22;;;11.82;56.57
38780;BME280;29273;49.962;9.768;2024-03-23T05:50:14;98609.47;;;11.96;56.32
38780;BME280;29273;49.962;9.768;2024-03-23T05:52:39;98624.19;;;12.03;57.49
38780;BME280;29273;49.962;9.768;2024-03-23T05:55:05;98662.97;;;12.21;58.04
38780;BME280;29273;49.962;9.768;2024-03-23T05:57:31;98668.91;;;12.29;59.17
38780;BME280;29273;49.962;9.768;2024-03-23T05:59:57;98672.72;;;12.33;59.71
38780;BME280;29273;49.962;9.768;2024-03-23T06:02:24;98679.13;;;12.37;59.20
38780;BME280;29273;49.962;9.768;2024-03-23T06:04:49;98690.81;;;12.36;59.23
38780;BME280;29273;49.962;9.768;2024-03-23T06:07:15;98699.03;;;12.34;59.40
38780;BME280;29273;49.962;9.768;2024-03-23T06:09:41;98702.16;;;12.31;59.52
38780;BME280;29273;49.962;9.768;2024-03-23T06:12:07;98686.69;;;12.28;59.36
38780;BME280;29273;49.962;9.768;2024-03-23T06:14:32;98688.22;;;12.24;58.67
38780;BME280;29273;49.962;9.768;2024-03-23T06:16:58;98683.09;;;12.17;58.53
38780;BME280;29273;49.962;9.768;2024-03-23T06:19:25;98678.25;;;12.14;58.64
38780;BME280;29273;49.962;9.768;2024-03-23T06:21:52;98677.56;;;12.07;58.80
38780;BME280;29273;49.962;9.768;2024-03-23T06:24:17;98680.47;;;12.06;58.48
38780;BME280;29273;49.962;9.768;2024-03-23T06:26:43;98699.78;;;12.01;58.89
38780;BME280;29273;49.962;9.768;2024-03-23T06:29:09;98699.78;;;12.01;58.87
38780;BME280;29273;49.962;9.768;2024-03-23T06:31:34;98703.94;;;11.97;59.08
38780;BME280;29273;49.962;9.768;2024-03-23T06:34:00;98737.28;;;11.93;58.66
38780;BME280;29273;49.962;9.768;2024-03-23T06:36:26;98724.47;;;11.90;57.93
38780;BME280;29273;49.962;9.768;2024-03-23T06:38:52;98743.50;;;11.87;57.67
38780;BME280;29273;49.962;9.768;2024-03-23T06:41:19;98734.06;;;11.79;57.89
38780;BME280;29273;49.962;9.768;2024-03-23T06:43:44;98748.16;;;11.79;57.42
38780;BME280;29273;49.962;9.768;2024-03-23T06:46:10;98762.34;;;11.73;56.96
38780;BME280;29273;49.962;9.768;2024-03-23T06:48:35;98782.66;;;11.68;56.45
38780;BME280;29273;49.962;9.768;2024-03-23T06:51:01;98779.19;;;11.67;56.09
38780;BME280;29273;49.962;9.768;2024-03-23T06:53:26;98792.34;;;11.62;56.15
38780;BME280;29273;49.962;9.768;2024-03-23T06:55:53;98801.59;;;11.59;56.08
38780;BME280;29273;49.962;9.768;2024-03-23T06:58:24;98819.09;;;11.60;55.86
38780;BME280;29273;49.962;9.768;2024-03-23T07:00:50;98823.16;;;11.51;56.17
38780;BME280;29273;49.962;9.768;2024-03-23T07:03:20;98824.53;;;11.54;56.04
38780;BME280;29273;49.962;9.768;2024-03-23T07:05:46;98843.19;;;11.47;56.08
38780;BME280;29273;49.962;9.768;2024-03-23T07:08:12;98866.72;;;11.43;56.37
38780;BME280;29273;49.962;9.768;2024-03-23T07:10:40;98878.13;;;11.44;56.06
38780;BME280;29273;49.962;9.768;2024-03-23T07:13:06;98884.00;;;11.34;56.16
38780;BME280;29273;49.962;9.768;2024-03-23T07:15:32;98880.75;;;11.32;55.72
38780;BME280;29273;49.962;9.768;2024-03-23T07:17:57;98888.94;;;11.30;55.75
38780;BME280;29273;49.962;9.768;2024-03-23T07:20:23;98887.34;;;11.29;55.82
38780;BME280;29273;49.962;9.768;2024-03-23T07:22:48;98887.78;;;11.26;55.73
38780;BME280;29273;49.962;9.768;2024-03-23T07:25:14;98912.00;;;11.30;55.67
38780;BME280;29273;49.962;9.768;2024-03-23T07:27:40;98919.16;;;11.29;55.59
38780;BME280;29273;49.962;9.768;2024-03-23T07:30:06;98930.56;;;11.30;55.41
38780;BME280;29273;49.962;9.768;2024-03-23T07:32:31;98941.38;;;11.28;55.52
38780;BME280;29273;49.962;9.768;2024-03-23T07:34:57;98948.53;;;11.28;55.55
38780;BME280;29273;49.962;9.768;2024-03-23T07:37:22;98962.00;;;11.26;55.95
38780;BME280;29273;49.962;9.768;2024-03-23T07:39:48;98962.69;;;11.22;55.78
38780;BME280;29273;49.962;9.768;2024-03-23T07:42:14;98958.06;;;11.17;55.86
38780;BME280;29273;49.962;9.768;2024-03-23T07:44:39;98974.66;;;11.13;55.59
38780;BME280;29273;49.962;9.768;2024-03-23T07:47:05;98985.13;;;11.07;55.77
38780;BME280;29273;49.962;9.768;2024-03-23T07:49:30;98998.22;;;11.02;56.02
38780;BME280;29273;49.962;9.768;2024-03-23T07:51:56;99009.28;;;10.99;55.77
38780;BME280;29273;49.962;9.768;2024-03-23T07:54:21;99013.97;;;10.97;55.78
38780;BME280;29273;49.962;9.768;2024-03-23T07:56:47;99007.06;;;10.96;55.49
38780;BME280;29273;49.962;9.768;2024-03-23T07:59:12;99002.22;;;10.93;55.98
38780;BME280;29273;49.962;9.768;2024-03-23T08:01:38;99023.19;;;10.95;55.78
38780;BME280;29273;49.962;9.768;2024-03-23T08:04:03;99039.31;;;10.93;55.61
38780;BME280;29273;49.962;9.768;2024-03-23T08:06:29;99039.88;;;10.95;55.01
38780;BME280;29273;49.962;9.768;2024-03-23T08:08:55;99043.13;;;10.97;55.10
38780;BME280;29273;49.962;9.768;2024-03-23T08:11:28;99047.97;;;11.00;55.38
38780;BME280;29273;49.962;9.768;2024-03-23T08:13:54;99045.91;;;11.02;54.98
38780;BME280;29273;49.962;9.768;2024-03-23T08:16:20;99056.88;;;11.06;55.46
38780;BME280;29273;49.962;9.768;2024-03-23T08:18:46;99068.66;;;11.10;55.46
38780;BME280;29273;49.962;9.768;2024-03-23T08:21:12;99071.44;;;11.15;55.11
38780;BME280;29273;49.962;9.768;2024-03-23T08:23:37;99080.56;;;11.19;54.59
38780;BME280;29273;49.962;9.768;2024-03-23T08:26:10;99093.25;;;11.29;54.51
38780;BME280;29273;49.962;9.768;2024-03-23T08:28:36;99103.28;;;11.27;53.90
38780;BME280;29273;49.962;9.768;2024-03-23T08:31:11;99116.25;;;11.35;54.21
38780;BME280;29273;49.962;9.768;2024-03-23T08:33:37;99107.13;;;11.31;53.54
38780;BME280;29273;49.962;9.768;2024-03-23T08:36:07;99107.84;;;11.38;54.11
38780;BME280;29273;49.962;9.768;2024-03-23T08:38:34;99119.47;;;11.37;53.22
38780;BME280;29273;49.962;9.768;2024-03-23T08:43:34;99101.06;;;11.42;53.13
38780;BME280;29273;49.962;9.768;2024-03-23T08:46:04;99108.69;;;11.51;53.59
38780;BME280;29273;49.962;9.768;2024-03-23T08:48:30;99099.34;;;11.48;52.80
38780;BME280;29273;49.962;9.768;2024-03-23T08:51:02;99108.84;;;11.56;53.04
38780;BME280;29273;49.962;9.768;2024-03-23T08:53:28;99110.72;;;11.37;53.14
38780;BME280;29273;49.962;9.768;2024-03-23T08:55:55;99130.72;;;11.51;51.93
38780;BME280;29273;49.962;9.768;2024-03-23T08:58:21;99148.47;;;11.51;50.36
38780;BME280;29273;49.962;9.768;2024-03-23T09:00:46;99157.25;;;11.51;51.47
38780;BME280;29273;49.962;9.768;2024-03-23T09:03:12;99158.28;;;11.50;51.22
38780;BME280;29273;49.962;9.768;2024-03-23T09:05:40;99169.84;;;11.56;52.61
38780;BME280;29273;49.962;9.768;2024-03-23T09:08:06;99179.84;;;11.54;51.45
38780;BME280;29273;49.962;9.768;2024-03-23T09:10:37;99192.66;;;11.57;51.35
38780;BME280;29273;49.962;9.768;2024-03-23T09:13:03;99197.16;;;11.56;51.22
38780;BME280;29273;49.962;9.768;2024-03-23T09:15:28;99201.41;;;11.57;51.15
38780;BME280;29273;49.962;9.768;2024-03-23T09:17:54;99204.47;;;11.61;51.26
38780;BME280;29273;49.962;9.768;2024-03-23T09:20:19;99200.75;;;11.62;51.33
38780;BME280;29273;49.962;9.768;2024-03-23T09:22:45;99197.44;;;11.66;51.59
38780;BME280;29273;49.962;9.768;2024-03-23T09:25:10;99207.59;;;11.70;51.40
38780;BME280;29273;49.962;9.768;2024-03-23T09:27:35;99209.81;;;11.73;49.87
38780;BME280;29273;49.962;9.768;2024-03-23T09:30:01;99206.34;;;11.72;48.75
38780;BME280;29273;49.962;9.768;2024-03-23T09:32:27;99190.81;;;11.76;48.79
38780;BME280;29273;49.962;9.768;2024-03-23T09:34:53;99206.72;;;11.76;48.50
38780;BME280;29273;49.962;9.768;2024-03-23T09:37:18;99204.88;;;11.76;49.29
38780;BME280;29273;49.962;9.768;2024-03-23T09:39:44;99220.91;;;11.81;48.69
38780;BME280;29273;49.962;9.768;2024-03-23T09:42:09;99215.38;;;11.83;48.62
38780;BME280;29273;49.962;9.768;2024-03-23T09:44:35;99221.84;;;11.87;49.16
38780;BME280;29273;49.962;9.768;2024-03-23T09:47:01;99226.13;;;11.88;48.47
38780;BME280;29273;49.962;9.768;2024-03-23T09:49:27;99220.41;;;11.91;49.03
38780;BME280;29273;49.962;9.768;2024-03-23T09:51:52;99218.69;;;11.97;48.92
38780;BME280;29273;49.962;9.768;2024-03-23T09:54:20;99226.00;;;12.01;48.97
38780;BME280;29273;49.962;9.768;2024-03-23T09:56:47;99221.84;;;12.06;49.47
38780;BME280;29273;49.962;9.768;2024-03-23T09:59:12;99225.47;;;12.11;48.96
38780;BME280;29273;49.962;9.768;2024-03-23T10:01:38;99221.06;;;12.17;49.07
38780;BME280;29273;49.962;9.768;2024-03-23T10:04:04;99223.06;;;12.21;48.89
38780;BME280;29273;49.962;9.768;2024-03-23T10:06:29;99228.72;;;12.25;48.62
38780;BME280;29273;49.962;9.768;2024-03-23T10:08:55;99229.28;;;12.27;48.45
38780;BME280;29273;49.962;9.768;2024-03-23T10:11:20;99223.53;;;12.30;48.11
38780;BME280;29273;49.962;9.768;2024-03-23T10:13:47;99233.94;;;12.32;48.92
38780;BME280;29273;49.962;9.768;2024-03-23T10:16:20;99244.44;;;12.38;48.81
38780;BME280;29273;49.962;9.768;2024-03-23T10:18:46;99233.72;;;12.33;46.85
38780;BME280;29273;49.962;9.768;2024-03-23T10:21:12;99226.53;;;12.34;47.48
38780;BME280;29273;49.962;9.768;2024-03-23T10:23:39;99232.22;;;12.37;47.52
38780;BME280;29273;49.962;9.768;2024-03-23T10:26:24;99238.69;;;12.42;48.24
38780;BME280;29273;49.962;9.768;2024-03-23T10:29:00;99231.75;;;12.40;48.20
38780;BME280;29273;49.962;9.768;2024-03-23T10:31:31;99224.50;;;12.36;46.96
38780;BME280;29273;49.962;9.768;2024-03-23T10:33:57;99218.97;;;12.37;47.50
38780;BME280;29273;49.962;9.768;2024-03-23T10:36:23;99226.69;;;12.39;47.13
38780;BME280;29273;49.962;9.768;2024-03-23T10:38:50;99221.97;;;12.41;47.83
38780;BME280;29273;49.962;9.768;2024-03-23T10:41:16;99223.56;;;12.42;47.88
38780;BME280;29273;49.962;9.768;2024-03-23T10:43:43;99221.84;;;12.48;47.88
38780;BME280;29273;49.962;9.768;2024-03-23T10:46:09;99230.41;;;12.50;46.51
38780;BME280;29273;49.962;9.768;2024-03-23T10:48:35;99203.16;;;12.54;44.87
38780;BME280;29273;49.962;9.768;2024-03-23T10:51:01;99214.69;;;12.60;44.99
38780;BME280;29273;49.962;9.768;2024-03-23T10:53:27;99217.47;;;12.65;45.47
38780;BME280;29273;49.962;9.768;2024-03-23T10:55:55;99222.34;;;12.68;45.53
38780;BME280;29273;49.962;9.768;2024-03-23T10:58:29;99217.97;;;12.74;46.20
38780;BME280;29273;49.962;9.768;2024-03-23T11:00:56;99221.31;;;12.69;44.56
38780;BME280;29273;49.962;9.768;2024-03-23T11:03:35;99217.47;;;12.77;46.71
38780;BME280;29273;49.962;9.768;2024-03-23T11:06:03;99217.72;;;12.75;44.98
38780;BME280;29273;49.962;9.768;2024-03-23T11:08:39;99213.81;;;12.78;45.12
38780;BME280;29273;49.962;9.768;2024-03-23T11:11:14;99213.91;;;12.83;45.53
38780;BME280;29273;49.962;9.768;2024-03-23T11:13:40;99212.78;;;12.79;43.49
38780;BME280;29273;49.962;9.768;2024-03-23T11:16:28;99208.72;;;12.88;45.65
38780;BME280;29273;49.962;9.768;2024-03-23T11:19:35;99210.00;;;12.86;45.68
38780;BME280;29273;49.962;9.768;2024-03-23T11:22:02;99209.63;;;12.82;42.75
38780;BME280;29273;49.962;9.768;2024-03-23T11:24:27;99198.44;;;12.80;42.52
38780;BME280;29273;49.962;9.768;2024-03-23T11:26:53;99194.97;;;12.80;43.15
38780;BME280;29273;49.962;9.768;2024-03-23T11:29:18;99190.69;;;12.78;42.80
38780;BME280;29273;49.962;9.768;2024-03-23T11:34:13;99184.13;;;12.81;44.22
38780;BME280;29273;49.962;9.768;2024-03-23T11:36:40;99174.50;;;12.80;44.00
38780;BME280;29273;49.962;9.768;2024-03-23T11:39:15;99173.13;;;12.89;45.65
38780;BME280;29273;49.962;9.768;2024-03-23T11:41:51;99169.41;;;12.90;44.31
38780;BME280;29273;49.962;9.768;2024-03-23T11:44:19;99163.53;;;12.88;42.14
38780;BME280;29273;49.962;9.768;2024-03-23T11:46:45;99168.38;;;12.91;42.53
38780;BME280;29273;49.962;9.768;2024-03-23T11:49:28;99157.88;;;12.96;43.15
38780;BME280;29273;49.962;9.768;2024-03-23T11:51:56;99159.59;;;13.03;43.72
38780;BME280;29273;49.962;9.768;2024-03-23T11:54:23;99162.03;;;13.04;42.66
38780;BME280;29273;49.962;9.768;2024-03-23T11:57:03;99211.34;;;13.12;41.94
38780;BME280;29273;49.962;9.768;2024-03-23T11:59:41;99183.50;;;13.14;43.00
38780;BME280;29273;49.962;9.768;2024-03-23T12:02:08;99198.53;;;13.09;39.99
38780;BME280;29273;49.962;9.768;2024-03-23T12:04:34;99214.13;;;13.05;41.54
38780;BME280;29273;49.962;9.768;2024-03-23T12:07:20;99253.31;;;12.98;44.05
38780;BME280;29273;49.962;9.768;2024-03-23T12:10:07;99284.88;;;12.83;45.41
38780;BME280;29273;49.962;9.768;2024-03-23T12:12:33;99302.81;;;12.57;46.74
38780;BME280;29273;49.962;9.768;2024-03-23T12:15:09;99301.63;;;12.41;46.77
38780;BME280;29273;49.962;9.768;2024-03-23T12:17:35;99256.72;;;12.09;47.89
38780;BME280;29273;49.962;9.768;2024-03-23T12:20:01;99251.03;;;11.87;49.09
38780;BME280;29273;49.962;9.768;2024-03-23T12:22:26;99229.84;;;11.69;48.93
38780;BME280;29273;49.962;9.768;2024-03-23T12:24:52;99249.47;;;11.49;49.56
38780;BME280;29273;49.962;9.768;2024-03-23T12:27:18;99240.63;;;11.37;50.81
38780;BME280;29273;49.962;9.768;2024-03-23T12:29:43;99249.06;;;11.27;50.70
38780;BME280;29273;49.962;9.768;2024-03-23T12:32:12;99246.28;;;11.22;51.72
38780;BME280;29273;49.962;9.768;2024-03-23T12:34:38;99234.94;;;11.15;51.23
38780;BME280;29273;49.962;9.768;2024-03-23T12:37:03;99248.41;;;11.13;51.62
38780;BME280;29273;49.962;9.768;2024-03-23T12:39:29;99240.69;;;11.11;52.73
38780;BME280;29273;49.962;9.768;2024-03-23T12:41:55;99245.09;;;11.18;53.98
38780;BME280;29273;49.962;9.768;2024-03-23T12:44:20;99243.03;;;11.20;52.37
38780;BME280;29273;49.962;9.768;2024-03-23T12:46:46;99244.22;;;11.24;51.41
38780;BME280;29273;49.962;9.768;2024-03-23T12:49:12;99234.44;;;11.24;51.47
38780;BME280;29273;49.962;9.768;2024-03-23T12:51:37;99241.13;;;11.27;51.37
38780;BME280;29273;49.962;9.768;2024-03-23T12:54:03;99237.66;;;11.26;51.44
38780;BME280;29273;49.962;9.768;2024-03-23T12:56:28;99249.06;;;11.27;50.14
38780;BME280;29273;49.962;9.768;2024-03-23T12:58:55;99238.25;;;11.28;50.47
38780;BME280;29273;49.962;9.768;2024-03-23T13:01:25;99220.91;;;11.33;51.18
38780;BME280;29273;49.962;9.768;2024-03-23T13:03:51;99210.72;;;11.29;51.15
38780;BME280;29273;49.962;9.768;2024-03-23T13:06:17;99205.22;;;11.31;50.82
38780;BME280;29273;49.962;9.768;2024-03-23T13:08:46;99194.97;;;11.35;50.90
38780;BME280;29273;49.962;9.768;2024-03-23T13:11:12;99187.38;;;11.38;50.55
38780;BME280;29273;49.962;9.768;2024-03-23T13:13:38;99180.63;;;11.42;50.15
38780;BME280;29273;49.962;9.768;2024-03-23T13:16:04;99180.97;;;11.46;49.91
38780;BME280;29273;49.962;9.768;2024-03-23T13:18:31;99176.59;;;11.52;49.08
38780;BME280;29273;49.962;9.768;2024-03-23T13:20:57;99173.06;;;11.58;48.79
38780;BME280;29273;49.962;9.768;2024-03-23T13:23:22;99173.44;;;11.61;47.38
38780;BME280;29273;49.962;9.768;2024-03-23T13:25:55;99174.50;;;11.72;49.24
38780;BME280;29273;49.962;9.768;2024-03-23T13:28:24;99183.66;;;11.76;49.52
38780;BME280;29273;49.962;9.768;2024-03-23T13:30:56;99177.28;;;11.77;46.85
38780;BME280;29273;49.962;9.768;2024-03-23T13:33:23;99167.50;;;11.78;47.32
38780;BME280;29273;49.962;9.768;2024-03-23T13:35:52;99166.00;;;11.82;46.89
38780;BME280;29273;49.962;9.768;2024-03-23T13:38:18;99159.91;;;11.81;44.68
38780;BME280;29273;49.962;9.768;2024-03-23T13:40:53;99170.66;;;11.87;42.92
38780;BME280;29273;49.962;9.768;2024-03-23T13:43:19;99162.25;;;11.90;42.50
38780;BME280;29273;49.962;9.768;2024-03-23T13:45:47;99153.19;;;11.97;43.56
38780;BME280;29273;49.962;9.768;2024-03-23T13:48:15;99159.88;;;12.00;43.16
38780;BME280;29273;49.962;9.768;2024-03-23T13:50:41;99146.16;;;12.03;43.72
38780;BME280;29273;49.962;9.768;2024-03-23T13:53:06;99149.16;;;12.07;42.87
38780;BME280;29273;49.962;9.768;2024-03-23T13:55:33;99156.66;;;12.10;43.37
38780;BME280;29273;49.962;9.768;2024-03-23T13:57:58;99147.59;;;12.17;43.87